Time;durP1;ratioP1;P1;durP2;ratioP2;P2;SDS_P1;SDS_P2;PMS_P1;PMS_P2;Temp;Humidity;BMP_temperature;BMP_pressure;BME280_temperature;BME280_humidity;BME280_pressure;Samples;Min_cycle;Max_cycle;Signal;HPM_P1;HPM_P2
2023/08/04 00:02:05;;;;;;;3.70;2.17;;;;;;;;;;6242259;28;20432;-74
2023/08/04 00:05:07;;;;;;;5.13;3.15;;;;;;;;;;6241927;28;20053;-74
2023/08/04 00:08:09;;;;;;;5.32;2.40;;;;;;;;;;6244129;28;20056;-74
2023/08/04 00:11:10;;;;;;;7.82;2.58;;;;;;;;;;6242944;28;20332;-74
2023/08/04 00:14:12;;;;;;;3.53;2.13;;;;;;;;;;6244929;28;20103;-74
2023/08/04 00:17:14;;;;;;;5.40;2.40;;;;;;;;;;6243420;28;20105;-74
2023/08/04 00:20:16;;;;;;;4.60;2.85;;;;;;;;;;6243295;28;20107;-74
2023/08/04 00:23:17;;;;;;;4.50;2.72;;;;;;;;;;6239907;28;20046;-73
2023/08/04 00:26:19;;;;;;;5.22;2.70;;;;;;;;;;6243821;28;20060;-74
2023/08/04 00:29:20;;;;;;;4.70;2.60;;;;;;;;;;6241909;28;20088;-73
2023/08/04 00:32:23;;;;;;;4.10;2.70;;;;;;;;;;6243180;28;20486;-75
2023/08/04 00:35:25;;;;;;;5.57;2.65;;;;;;;;;;6243048;28;20060;-73
2023/08/04 00:38:26;;;;;;;5.18;2.72;;;;;;;;;;6244166;28;20339;-73
2023/08/04 00:41:28;;;;;;;5.55;2.92;;;;;;;;;;6243860;28;20060;-73
2023/08/04 00:44:29;;;;;;;8.55;2.97;;;;;;;;;;6240157;28;20057;-74
2023/08/04 00:47:35;;;;;;;5.05;2.53;;;;;;;;;;6242891;28;20057;-74
2023/08/04 00:50:36;;;;;;;4.03;2.30;;;;;;;;;;6242428;28;20269;-75
2023/08/04 00:53:38;;;;;;;5.07;2.67;;;;;;;;;;6241136;28;20054;-74
2023/08/04 00:56:39;;;;;;;5.55;2.40;;;;;;;;;;6242080;28;20241;-74
2023/08/04 00:59:41;;;;;;;4.38;2.90;;;;;;;;;;6241997;28;20042;-74
2023/08/04 01:02:44;;;;;;;5.63;2.72;;;;;;;;;;6242266;28;20329;-74
2023/08/04 01:05:48;;;;;;;4.85;2.60;;;;;;;;;;6239925;28;20046;-75
2023/08/04 01:09:02;;;;;;;5.93;2.50;;;;;;;;;;6240106;28;20056;-75
2023/08/04 01:12:07;;;;;;;6.57;2.50;;;;;;;;;;6242090;28;20416;-74
2023/08/04 01:15:10;;;;;;;4.50;2.40;;;;;;;;;;6239777;28;20072;-74
2023/08/04 01:18:13;;;;;;;4.55;2.70;;;;;;;;;;6241399;28;20050;-74
2023/08/04 01:21:15;;;;;;;4.18;2.63;;;;;;;;;;6241492;28;20099;-75
2023/08/04 01:24:17;;;;;;;5.82;2.53;;;;;;;;;;6240867;28;20333;-74
2023/08/04 01:27:19;;;;;;;4.22;2.47;;;;;;;;;;6241152;28;20089;-74
2023/08/04 01:30:21;;;;;;;5.38;2.63;;;;;;;;;;6241415;28;20057;-74
2023/08/04 01:33:23;;;;;;;5.13;2.53;;;;;;;;;;6241958;28;20057;-74
2023/08/04 01:36:26;;;;;;;4.80;2.65;;;;;;;;;;6241126;28;21019;-73
2023/08/04 01:39:27;;;;;;;6.03;2.40;;;;;;;;;;6245621;28;20058;-74
2023/08/04 01:42:29;;;;;;;4.68;2.20;;;;;;;;;;6245559;28;20061;-75
2023/08/04 01:45:30;;;;;;;5.63;2.72;;;;;;;;;;6242750;28;20276;-74
2023/08/04 01:48:32;;;;;;;6.22;2.92;;;;;;;;;;6243731;28;20062;-75
2023/08/04 01:51:35;;;;;;;6.93;2.70;;;;;;;;;;6239907;28;20045;-75
2023/08/04 01:54:36;;;;;;;5.82;2.67;;;;;;;;;;6240378;28;20058;-74
2023/08/04 01:57:37;;;;;;;5.32;2.55;;;;;;;;;;6239005;28;20045;-75
2023/08/04 02:00:39;;;;;;;6.55;2.58;;;;;;;;;;6238942;28;20053;-74
2023/08/04 02:03:40;;;;;;;3.95;2.70;;;;;;;;;;6241501;28;20045;-74
2023/08/04 02:06:43;;;;;;;5.80;2.80;;;;;;;;;;6239255;28;20049;-74
2023/08/04 02:09:46;;;;;;;4.50;2.70;;;;;;;;;;6238289;28;20053;-74
2023/08/04 02:12:47;;;;;;;5.55;2.45;;;;;;;;;;6240231;28;20057;-74
2023/08/04 02:15:49;;;;;;;5.13;2.50;;;;;;;;;;6239810;28;20053;-72
2023/08/04 02:18:50;;;;;;;4.30;2.67;;;;;;;;;;6242881;28;20219;-73
2023/08/04 02:21:53;;;;;;;6.25;2.78;;;;;;;;;;6243589;28;20060;-74
2023/08/04 02:24:55;;;;;;;7.15;3.30;;;;;;;;;;6240914;28;20049;-74
2023/08/04 02:27:56;;;;;;;5.97;2.90;;;;;;;;;;6239581;28;20068;-74
2023/08/04 02:30:59;;;;;;;4.43;2.58;;;;;;;;;;6236617;28;20345;-75
2023/08/04 02:34:00;;;;;;;3.38;2.50;;;;;;;;;;6237863;28;20049;-74
2023/08/04 02:37:03;;;;;;;4.45;2.75;;;;;;;;;;6238157;28;20109;-74
2023/08/04 02:40:05;;;;;;;6.05;2.95;;;;;;;;;;6243454;28;20241;-74
2023/08/04 02:43:07;;;;;;;6.35;3.10;;;;;;;;;;6242331;28;20049;-75
2023/08/04 02:46:09;;;;;;;5.82;3.20;;;;;;;;;;6240985;28;20060;-74
2023/08/04 02:49:10;;;;;;;7.07;3.28;;;;;;;;;;6240671;28;20049;-72
2023/08/04 02:52:16;;;;;;;4.70;2.40;;;;;;;;;;6239787;28;20053;-72
2023/08/04 02:55:17;;;;;;;4.50;2.30;;;;;;;;;;6239705;28;20116;-75
2023/08/04 02:58:19;;;;;;;6.82;2.50;;;;;;;;;;6240342;28;20058;-73
2023/08/04 03:01:20;;;;;;;4.18;2.25;;;;;;;;;;6242513;28;20049;-73
2023/08/04 03:04:22;;;;;;;3.67;2.50;;;;;;;;;;6238950;28;20056;-73
2023/08/04 03:07:25;;;;;;;5.15;2.63;;;;;;;;;;6238370;28;20184;-73
2023/08/04 03:10:26;;;;;;;4.93;2.33;;;;;;;;;;6238876;28;20072;-72
2023/08/04 03:13:28;;;;;;;4.03;2.08;;;;;;;;;;6239286;28;20279;-72
2023/08/04 03:16:30;;;;;;;4.13;2.47;;;;;;;;;;6237652;28;20049;-75
2023/08/04 03:19:31;;;;;;;4.60;1.98;;;;;;;;;;6236732;28;20053;-74
2023/08/04 03:22:34;;;;;;;5.47;2.60;;;;;;;;;;6238079;28;20718;-74
2023/08/04 03:25:36;;;;;;;4.60;2.28;;;;;;;;;;6238105;28;20046;-73
2023/08/04 03:28:37;;;;;;;4.20;2.30;;;;;;;;;;6239313;28;20045;-72
2023/08/04 03:31:39;;;;;;;3.88;2.35;;;;;;;;;;6237172;28;20054;-73
2023/08/04 03:34:40;;;;;;;5.20;2.05;;;;;;;;;;6239277;28;20061;-73
2023/08/04 03:37:43;;;;;;;4.70;2.20;;;;;;;;;;6236695;28;20051;-74
2023/08/04 03:40:45;;;;;;;4.85;2.50;;;;;;;;;;6240715;28;20087;-72
2023/08/04 03:43:47;;;;;;;8.57;2.58;;;;;;;;;;6236987;28;20049;-74
2023/08/04 03:46:48;;;;;;;3.80;2.20;;;;;;;;;;6241819;28;20069;-74
2023/08/04 03:49:50;;;;;;;6.25;2.42;;;;;;;;;;6236905;28;20081;-72
2023/08/04 03:52:53;;;;;;;5.57;2.35;;;;;;;;;;6238870;28;20053;-74
2023/08/04 03:55:54;;;;;;;5.07;2.30;;;;;;;;;;6239558;28;20045;-72
2023/08/04 03:58:56;;;;;;;6.00;2.60;;;;;;;;;;6242092;28;20100;-72
2023/08/04 04:01:57;;;;;;;6.00;1.80;;;;;;;;;;6241630;28;20046;-72
2023/08/04 04:04:59;;;;;;;4.65;2.03;;;;;;;;;;6243972;28;20064;-74
2023/08/04 04:08:02;;;;;;;5.13;1.90;;;;;;;;;;6244728;28;20049;-73
2023/08/04 04:11:03;;;;;;;7.25;2.20;;;;;;;;;;6241433;28;20057;-72
2023/08/04 04:14:05;;;;;;;2.83;1.77;;;;;;;;;;6242066;28;20041;-72
2023/08/04 04:17:07;;;;;;;4.28;1.88;;;;;;;;;;6241603;28;20046;-72
2023/08/04 04:20:08;;;;;;;5.40;2.10;;;;;;;;;;6240639;28;20052;-72
2023/08/04 04:23:11;;;;;;;7.38;2.20;;;;;;;;;;6242216;28;20049;-72
2023/08/04 04:26:13;;;;;;;5.75;2.25;;;;;;;;;;6242198;28;20071;-72
2023/08/04 04:29:14;;;;;;;5.28;2.25;;;;;;;;;;6241761;28;20064;-72
2023/08/04 04:32:16;;;;;;;4.60;2.35;;;;;;;;;;6241932;28;20077;-72
2023/08/04 04:35:18;;;;;;;7.03;2.05;;;;;;;;;;6239144;28;20056;-72
2023/08/04 04:38:21;;;;;;;9.48;2.25;;;;;;;;;;6242341;28;20057;-72
2023/08/04 04:41:22;;;;;;;3.67;1.90;;;;;;;;;;6244973;28;20061;-72
2023/08/04 04:44:24;;;;;;;6.28;2.20;;;;;;;;;;6246111;28;20044;-72
2023/08/04 04:47:25;;;;;;;5.25;2.40;;;;;;;;;;6243497;28;20053;-72
2023/08/04 04:50:27;;;;;;;4.75;2.20;;;;;;;;;;6242491;28;20638;-72
2023/08/04 04:53:30;;;;;;;3.60;1.90;;;;;;;;;;6238762;28;20076;-71
2023/08/04 04:56:31;;;;;;;7.43;1.95;;;;;;;;;;6241444;28;20160;-72
2023/08/04 04:59:33;;;;;;;3.85;1.85;;;;;;;;;;6243240;28;20063;-71
2023/08/04 05:02:34;;;;;;;5.38;1.60;;;;;;;;;;6241505;28;20105;-72
2023/08/04 05:05:36;;;;;;;4.35;1.92;;;;;;;;;;6240315;28;20057;-73
2023/08/04 05:08:39;;;;;;;7.35;2.53;;;;;;;;;;6241649;28;20045;-73
2023/08/04 05:11:41;;;;;;;4.28;1.95;;;;;;;;;;6239904;28;20341;-76
2023/08/04 05:14:42;;;;;;;4.75;2.03;;;;;;;;;;6241360;28;20053;-74
2023/08/04 05:17:44;;;;;;;4.72;2.33;;;;;;;;;;6240436;28;20057;-74
2023/08/04 05:20:46;;;;;;;5.30;2.50;;;;;;;;;;6242039;28;20065;-76
2023/08/04 05:23:49;;;;;;;5.43;2.20;;;;;;;;;;6240603;28;20215;-74
2023/08/04 05:26:51;;;;;;;5.05;2.10;;;;;;;;;;6241230;28;20053;-72
2023/08/04 05:29:53;;;;;;;5.53;2.10;;;;;;;;;;6238768;28;20053;-73
2023/08/04 05:32:54;;;;;;;4.53;2.15;;;;;;;;;;6240960;28;20116;-76
2023/08/04 05:35:56;;;;;;;5.30;1.88;;;;;;;;;;6241990;28;20116;-73
2023/08/04 05:38:59;;;;;;;5.82;2.28;;;;;;;;;;6241743;28;20108;-76
2023/08/04 05:42:01;;;;;;;6.93;2.30;;;;;;;;;;6241549;28;20060;-76
2023/08/04 05:45:02;;;;;;;8.75;2.55;;;;;;;;;;6243309;28;20126;-75
2023/08/04 05:48:04;;;;;;;4.57;2.42;;;;;;;;;;6244422;28;20053;-74
2023/08/04 05:51:06;;;;;;;5.68;2.47;;;;;;;;;;6236923;28;20132;-75
2023/08/04 05:54:09;;;;;;;4.53;2.20;;;;;;;;;;6240546;28;20571;-73
2023/08/04 05:57:10;;;;;;;8.00;2.75;;;;;;;;;;6240890;28;20158;-74
2023/08/04 06:00:12;;;;;;;7.88;2.30;;;;;;;;;;6239148;28;20057;-75
2023/08/04 06:03:14;;;;;;;7.20;2.67;;;;;;;;;;6237951;28;20049;-78
2023/08/04 06:06:15;;;;;;;6.70;2.50;;;;;;;;;;6240987;28;20049;-77
2023/08/04 06:09:18;;;;;;;6.60;2.28;;;;;;;;;;6239163;28;20063;-75
2023/08/04 06:12:20;;;;;;;5.28;2.13;;;;;;;;;;6241958;28;20802;-73
2023/08/04 06:15:22;;;;;;;4.72;2.28;;;;;;;;;;6240692;28;20119;-73
2023/08/04 06:18:23;;;;;;;6.15;2.63;;;;;;;;;;6239300;28;20261;-73
2023/08/04 06:21:25;;;;;;;4.82;2.25;;;;;;;;;;6240610;28;20156;-74
2023/08/04 06:24:28;;;;;;;8.13;2.05;;;;;;;;;;6241809;28;20250;-75
2023/08/04 06:27:30;;;;;;;8.40;2.60;;;;;;;;;;6240042;28;21560;-73
2023/08/04 06:30:31;;;;;;;5.75;1.90;;;;;;;;;;6239240;28;20068;-72
2023/08/04 06:33:33;;;;;;;10.70;2.45;;;;;;;;;;6238808;28;20045;-75
2023/08/04 06:36:35;;;;;;;12.48;2.53;;;;;;;;;;6243171;28;20064;-74
2023/08/04 06:39:38;;;;;;;13.10;3.10;;;;;;;;;;6240174;28;20125;-74
2023/08/04 06:42:39;;;;;;;6.03;1.95;;;;;;;;;;6240006;28;20064;-72
2023/08/04 06:45:41;;;;;;;4.72;2.00;;;;;;;;;;6245462;28;20095;-72
2023/08/04 06:48:42;;;;;;;5.25;2.35;;;;;;;;;;6242013;28;20053;-73
2023/08/04 06:51:44;;;;;;;7.75;2.40;;;;;;;;;;6239146;28;20138;-72
2023/08/04 06:54:48;;;;;;;5.40;2.00;;;;;;;;;;6239007;28;20057;-73
2023/08/04 06:57:50;;;;;;;18.05;3.10;;;;;;;;;;6240087;28;20101;-73
2023/08/04 07:00:51;;;;;;;7.15;1.60;;;;;;;;;;6243418;28;20142;-71
2023/08/04 07:03:53;;;;;;;7.43;2.20;;;;;;;;;;6241486;28;20053;-73
2023/08/04 07:06:55;;;;;;;7.20;2.40;;;;;;;;;;6239078;28;20054;-72
2023/08/04 07:09:57;;;;;;;5.15;2.03;;;;;;;;;;6239853;28;20321;-73
2023/08/04 07:12:59;;;;;;;7.43;2.45;;;;;;;;;;6238288;28;20225;-74
2023/08/04 07:16:00;;;;;;;13.20;3.08;;;;;;;;;;6239747;28;20049;-74
2023/08/04 07:19:02;;;;;;;9.07;2.08;;;;;;;;;;6240252;28;20053;-74
2023/08/04 07:22:04;;;;;;;7.53;2.63;;;;;;;;;;6238339;28;20104;-74
2023/08/04 07:25:07;;;;;;;7.35;2.10;;;;;;;;;;6239736;28;20049;-75
2023/08/04 07:28:09;;;;;;;9.80;2.65;;;;;;;;;;6239146;28;20060;-76
2023/08/04 07:31:10;;;;;;;6.13;2.00;;;;;;;;;;6239942;28;20452;-75
2023/08/04 07:34:12;;;;;;;12.02;2.80;;;;;;;;;;6247054;28;20049;-73
2023/08/04 07:37:14;;;;;;;7.85;2.33;;;;;;;;;;6246433;28;20257;-73
2023/08/04 07:40:17;;;;;;;7.97;2.38;;;;;;;;;;6245527;28;20061;-77
2023/08/04 07:43:18;;;;;;;7.53;2.10;;;;;;;;;;6246380;28;20104;-75
2023/08/04 07:46:21;;;;;;;7.10;2.33;;;;;;;;;;6245952;28;20057;-75
2023/08/04 07:49:22;;;;;;;11.20;2.30;;;;;;;;;;6242282;28;21022;-75
2023/08/04 07:52:24;;;;;;;6.22;2.58;;;;;;;;;;6244667;28;20277;-75
2023/08/04 07:55:26;;;;;;;5.32;1.83;;;;;;;;;;6243057;28;20057;-75
2023/08/04 07:58:28;;;;;;;8.07;2.17;;;;;;;;;;6242270;28;20050;-76
2023/08/04 08:01:29;;;;;;;8.68;2.05;;;;;;;;;;6245092;28;20229;-75
2023/08/04 08:04:31;;;;;;;9.63;2.53;;;;;;;;;;6240966;28;20081;-76
2023/08/04 08:07:32;;;;;;;8.05;2.22;;;;;;;;;;6243618;28;20057;-76
2023/08/04 08:10:35;;;;;;;4.85;1.88;;;;;;;;;;6242286;28;20107;-76
2023/08/04 08:13:37;;;;;;;6.78;2.08;;;;;;;;;;6241186;28;20049;-76
2023/08/04 08:16:39;;;;;;;9.60;2.00;;;;;;;;;;6243982;28;20272;-75
2023/08/04 08:19:40;;;;;;;8.07;2.80;;;;;;;;;;6242302;28;20047;-74
2023/08/04 08:22:42;;;;;;;5.68;2.28;;;;;;;;;;6245399;28;20056;-75
2023/08/04 08:25:45;;;;;;;10.65;2.25;;;;;;;;;;6243053;28;20235;-75
2023/08/04 08:28:46;;;;;;;9.02;2.33;;;;;;;;;;6241238;28;20049;-74
2023/08/04 08:31:48;;;;;;;5.10;1.95;;;;;;;;;;6241921;28;20045;-76
2023/08/04 08:34:50;;;;;;;16.08;2.33;;;;;;;;;;6242469;28;20054;-76
2023/08/04 08:37:51;;;;;;;6.65;2.65;;;;;;;;;;6244030;28;20058;-76
2023/08/04 08:40:54;;;;;;;8.75;2.15;;;;;;;;;;6243067;28;20263;-77
2023/08/04 08:43:55;;;;;;;10.85;2.65;;;;;;;;;;6241359;28;20100;-77
2023/08/04 08:46:57;;;;;;;4.22;2.08;;;;;;;;;;6242990;28;20065;-77
2023/08/04 08:50:00;;;;;;;9.70;2.10;;;;;;;;;;6240101;28;20137;-76
2023/08/04 08:53:03;;;;;;;7.95;2.30;;;;;;;;;;6244330;28;20081;-76
2023/08/04 08:56:05;;;;;;;;;;;;;;;;;;6244804;28;20113;-77
2023/08/04 08:59:08;;;;;;;10.25;1.98;;;;;;;;;;6245217;28;20016;-76
2023/08/04 09:02:09;;;;;;;;;;;;;;;;;;6246584;28;20076;-77
2023/08/04 09:05:11;;;;;;;7.82;1.85;;;;;;;;;;6241370;28;19925;-77
2023/08/04 09:08:14;;;;;;;8.13;2.50;;;;;;;;;;6243610;28;21615;-76
2023/08/04 09:11:15;;;;;;;6.90;2.15;;;;;;;;;;6239283;28;20357;-78
2023/08/04 09:14:18;;;;;;;7.78;2.33;;;;;;;;;;6242396;28;20057;-77
2023/08/04 09:17:19;;;;;;;;;;;;;;;;;;6243191;28;20053;-76
2023/08/04 09:20:27;;;;;;;6.95;1.92;;;;;;;;;;6243746;28;19932;-77
2023/08/04 09:23:29;;;;;;;6.32;1.60;;;;;;;;;;6244404;28;20057;-76
2023/08/04 09:26:40;;;;;;;5.35;1.45;;;;;;;;;;6242665;28;20046;-77
2023/08/04 09:29:56;;;;;;;8.00;2.00;;;;;;;;;;6241413;28;20276;-76
2023/08/04 09:32:57;;;;;;;4.53;1.55;;;;;;;;;;6242567;28;20057;-76
2023/08/04 09:36:03;;;;;;;8.65;1.83;;;;;;;;;;6242819;28;20053;-76
2023/08/04 09:39:05;;;;;;;4.38;1.20;;;;;;;;;;6244237;28;20053;-76
2023/08/04 09:42:07;;;;;;;5.50;1.48;;;;;;;;;;6240798;28;20064;-77
2023/08/04 09:45:12;;;;;;;6.35;1.80;;;;;;;;;;6241799;28;20059;-76
2023/08/04 09:48:13;;;;;;;6.72;1.90;;;;;;;;;;6241658;28;20055;-76
2023/08/04 09:51:15;;;;;;;6.22;1.90;;;;;;;;;;6241556;28;20129;-75
2023/08/04 09:54:17;;;;;;;9.63;1.87;;;;;;;;;;6242218;28;20076;-76
2023/08/04 09:57:18;;;;;;;6.55;1.90;;;;;;;;;;6239092;28;20053;-77
2023/08/04 10:00:21;;;;;;;8.90;2.05;;;;;;;;;;6241797;28;20056;-76
2023/08/04 10:03:23;;;;;;;;;;;;;;;;;;6240033;28;20064;-77
2023/08/04 10:06:24;;;;;;;8.23;1.60;;;;;;;;;;6240083;28;19992;-75
2023/08/04 10:09:27;;;;;;;7.25;1.70;;;;;;;;;;6238973;28;20060;-77
2023/08/04 10:12:29;;;;;;;6.68;1.77;;;;;;;;;;6238926;28;20062;-76
2023/08/04 10:15:32;;;;;;;6.72;1.75;;;;;;;;;;6240767;28;20085;-76
2023/08/04 10:18:33;;;;;;;;;;;;;;;;;;6240402;28;20049;-76
2023/08/04 10:21:37;;;;;;;5.90;2.05;;;;;;;;;;6239653;28;19932;-76
2023/08/04 10:24:41;;;;;;;8.10;1.83;;;;;;;;;;6240781;28;20076;-76
2023/08/04 10:27:49;;;;;;;8.65;2.50;;;;;;;;;;6239664;28;20317;-77
2023/08/04 10:31:04;;;;;;;9.13;2.22;;;;;;;;;;6239597;28;20134;-76
2023/08/04 10:34:23;;;;;;;5.63;2.15;;;;;;;;;;6240778;28;20237;-76
2023/08/04 10:37:25;;;;;;;7.07;2.40;;;;;;;;;;6240774;28;20068;-77
2023/08/04 10:40:27;;;;;;;8.52;3.33;;;;;;;;;;6241588;28;20064;-76
2023/08/04 10:43:29;;;;;;;10.05;2.70;;;;;;;;;;6239928;28;20049;-77
2023/08/04 10:46:33;;;;;;;13.13;3.10;;;;;;;;;;6241058;28;20061;-77
2023/08/04 10:49:34;;;;;;;6.53;2.40;;;;;;;;;;6238516;28;20083;-76
2023/08/04 10:52:36;;;;;;;7.40;2.00;;;;;;;;;;6238881;28;20052;-76
2023/08/04 10:55:50;;;;;;;9.83;2.43;;;;;;;;;;6236602;28;20333;-77
2023/08/04 10:58:51;;;;;;;14.38;3.72;;;;;;;;;;6238373;28;20064;-75
2023/08/04 11:01:54;;;;;;;7.70;2.10;;;;;;;;;;6237517;28;20042;-75
2023/08/04 11:04:56;;;;;;;9.18;2.45;;;;;;;;;;6239380;28;20278;-76
2023/08/04 11:07:59;;;;;;;9.27;2.58;;;;;;;;;;6242978;28;20053;-77
2023/08/04 11:11:00;;;;;;;10.60;3.13;;;;;;;;;;6245705;28;20057;-77
2023/08/04 11:14:03;;;;;;;9.43;3.00;;;;;;;;;;6244494;28;20041;-76
2023/08/04 11:17:12;;;;;;;8.30;2.50;;;;;;;;;;6243888;28;20088;-73
2023/08/04 11:20:15;;;;;;;8.15;2.30;;;;;;;;;;6245290;28;20045;-76
2023/08/04 11:23:23;;;;;;;9.60;2.70;;;;;;;;;;6243435;28;20095;-72
2023/08/04 11:26:25;;;;;;;9.50;2.90;;;;;;;;;;6242421;28;20054;-73
2023/08/04 11:29:26;;;;;;;5.50;2.65;;;;;;;;;;6244965;28;20095;-73
2023/08/04 11:32:29;;;;;;;13.68;3.05;;;;;;;;;;6245865;28;20065;-73
2023/08/04 11:35:32;;;;;;;11.10;2.75;;;;;;;;;;6243498;28;20053;-73
2023/08/04 11:38:33;;;;;;;;;;;;;;;;;;6243900;28;20215;-72
2023/08/04 11:41:35;;;;;;;10.50;3.33;;;;;;;;;;6243025;28;20197;-74
2023/08/04 11:44:37;;;;;;;8.90;3.58;;;;;;;;;;6249586;28;20225;-75
2023/08/04 11:47:40;;;;;;;13.98;3.38;;;;;;;;;;6245232;28;20067;-75
2023/08/04 11:50:41;;;;;;;;;;;;;;;;;;6248311;28;20230;-74
2023/08/04 11:53:44;;;;;;;11.90;2.80;;;;;;;;;;6248266;28;19925;-75
2023/08/04 11:56:46;;;;;;;8.82;3.10;;;;;;;;;;6247979;28;20235;-76
2023/08/04 11:59:47;;;;;;;12.43;2.85;;;;;;;;;;6246790;28;20057;-76
2023/08/04 12:03:00;;;;;;;10.73;2.60;;;;;;;;;;6250604;28;20325;-75
2023/08/04 12:06:01;;;;;;;11.07;2.70;;;;;;;;;;6249234;28;20057;-75
2023/08/04 12:09:03;;;;;;;8.60;2.95;;;;;;;;;;6247949;28;20253;-74
2023/08/04 12:12:05;;;;;;;11.30;2.90;;;;;;;;;;6247819;28;20246;-75
2023/08/04 12:15:07;;;;;;;8.63;3.00;;;;;;;;;;6244697;28;20056;-75
2023/08/04 12:18:24;;;;;;;10.75;2.95;;;;;;;;;;6247520;28;20222;-74
2023/08/04 12:21:25;;;;;;;8.00;2.35;;;;;;;;;;6250804;28;20049;-74
2023/08/04 12:24:27;;;;;;;10.70;2.50;;;;;;;;;;6250551;28;20057;-75
2023/08/04 12:27:29;;;;;;;10.45;3.13;;;;;;;;;;6248724;28;20045;-74
2023/08/04 12:30:30;;;;;;;6.10;2.38;;;;;;;;;;6246461;28;20088;-74
2023/08/04 12:33:33;;;;;;;9.65;2.90;;;;;;;;;;6248637;28;20123;-76
2023/08/04 12:36:35;;;;;;;10.30;3.25;;;;;;;;;;6248567;28;20072;-76
2023/08/04 12:39:36;;;;;;;10.25;2.97;;;;;;;;;;6246428;28;20429;-78
2023/08/04 12:42:37;;;;;;;9.05;3.63;;;;;;;;;;6247697;28;20286;-77
2023/08/04 12:45:39;;;;;;;11.23;3.70;;;;;;;;;;6245255;28;20045;-77
2023/08/04 12:48:42;;;;;;;12.32;4.40;;;;;;;;;;6243776;28;20061;-77
2023/08/04 12:51:43;;;;;;;15.13;5.10;;;;;;;;;;6240025;28;20061;-76
2023/08/04 12:54:45;;;;;;;8.30;4.68;;;;;;;;;;6243219;28;20072;-76
2023/08/04 12:57:46;;;;;;;19.58;5.90;;;;;;;;;;6242682;28;20057;-77
2023/08/04 13:00:48;;;;;;;11.05;5.05;;;;;;;;;;6240796;28;20057;-75
2023/08/04 13:03:50;;;;;;;11.20;5.65;;;;;;;;;;6239616;28;20050;-76
2023/08/04 13:06:52;;;;;;;13.15;5.07;;;;;;;;;;6240187;28;20060;-75
2023/08/04 13:09:53;;;;;;;14.68;6.03;;;;;;;;;;6241654;28;20053;-76
2023/08/04 13:12:55;;;;;;;14.52;6.00;;;;;;;;;;6240993;28;20061;-75
2023/08/04 13:15:56;;;;;;;12.45;5.97;;;;;;;;;;6240410;28;20049;-74
2023/08/04 13:18:59;;;;;;;13.60;6.53;;;;;;;;;;6239260;28;20053;-74
2023/08/04 13:22:01;;;;;;;15.40;6.22;;;;;;;;;;6240891;28;20053;-74
2023/08/04 13:25:03;;;;;;;15.25;5.97;;;;;;;;;;6241778;28;20231;-74
2023/08/04 13:28:05;;;;;;;14.82;5.00;;;;;;;;;;6241575;28;20108;-73
2023/08/04 13:31:06;;;;;;;11.90;5.10;;;;;;;;;;6239927;28;20056;-74
2023/08/04 13:34:09;;;;;;;9.98;4.07;;;;;;;;;;6242808;28;20112;-74
2023/08/04 13:37:10;;;;;;;14.55;3.35;;;;;;;;;;6241578;28;20053;-74
2023/08/04 13:40:12;;;;;;;10.00;2.83;;;;;;;;;;6244589;28;20069;-74
2023/08/04 13:43:14;;;;;;;10.05;2.75;;;;;;;;;;6240252;28;20046;-74
2023/08/04 13:46:15;;;;;;;8.93;2.70;;;;;;;;;;6242394;28;20042;-74
2023/08/04 13:49:18;;;;;;;12.52;3.08;;;;;;;;;;6242273;28;20057;-74
2023/08/04 13:52:19;;;;;;;10.88;2.22;;;;;;;;;;6240990;28;20057;-73
2023/08/04 13:55:21;;;;;;;7.00;2.10;;;;;;;;;;6239879;28;20284;-73
2023/08/04 13:58:22;;;;;;;9.20;2.20;;;;;;;;;;6241594;28;20360;-73
2023/08/04 14:01:24;;;;;;;8.35;2.25;;;;;;;;;;6240067;28;20061;-74
2023/08/04 14:04:27;;;;;;;12.48;2.30;;;;;;;;;;6241440;28;20345;-75
2023/08/04 14:07:28;;;;;;;9.65;1.90;;;;;;;;;;6241549;28;20049;-74
2023/08/04 14:10:30;;;;;;;7.47;1.70;;;;;;;;;;6239043;28;20289;-75
2023/08/04 14:13:32;;;;;;;10.77;2.83;;;;;;;;;;6241994;28;20042;-74
2023/08/04 14:16:33;;;;;;;7.93;1.75;;;;;;;;;;6244000;28;20961;-74
2023/08/04 14:19:36;;;;;;;9.75;2.63;;;;;;;;;;6240655;28;20076;-74
2023/08/04 14:22:37;;;;;;;14.23;2.30;;;;;;;;;;6243762;28;20073;-73
2023/08/04 14:25:39;;;;;;;7.60;2.28;;;;;;;;;;6243093;28;20090;-75
2023/08/04 14:28:40;;;;;;;7.82;1.92;;;;;;;;;;6238827;28;20068;-74
2023/08/04 14:31:42;;;;;;;8.25;1.75;;;;;;;;;;6238575;28;20061;-74
2023/08/04 14:34:45;;;;;;;5.80;1.70;;;;;;;;;;6240964;28;20050;-74
2023/08/04 14:37:46;;;;;;;;;;;;;;;;;;6242438;28;20111;-75
2023/08/04 14:40:47;;;;;;;5.47;1.60;;;;;;;;;;6238913;28;19917;-75
2023/08/04 14:43:49;;;;;;;7.93;1.65;;;;;;;;;;6238436;28;22003;-75
2023/08/04 14:46:51;;;;;;;9.27;1.80;;;;;;;;;;6243169;28;20107;-77
2023/08/04 14:49:54;;;;;;;6.53;1.80;;;;;;;;;;6239430;28;20258;-77
2023/08/04 14:52:58;;;;;;;5.43;1.55;;;;;;;;;;6241115;28;20068;-77
2023/08/04 14:56:01;;;;;;;6.13;1.40;;;;;;;;;;6240528;28;20060;-76
2023/08/04 14:59:02;;;;;;;;;;;;;;;;;;6238797;28;20064;-76
2023/08/04 15:02:04;;;;;;;5.20;1.48;;;;;;;;;;6237633;28;20201;-76
2023/08/04 15:05:08;;;;;;;5.35;1.50;;;;;;;;;;6241644;28;20344;-76
2023/08/04 15:08:10;;;;;;;4.20;1.20;;;;;;;;;;6244508;28;20060;-77
2023/08/04 15:11:11;;;;;;;8.43;1.65;;;;;;;;;;6241035;28;20053;-77
2023/08/04 15:14:13;;;;;;;7.00;1.60;;;;;;;;;;6240246;28;20404;-78
2023/08/04 15:17:14;;;;;;;4.30;1.33;;;;;;;;;;6240980;28;20045;-78
2023/08/04 15:20:18;;;;;;;3.25;1.20;;;;;;;;;;6239634;28;20053;-78
2023/08/04 15:23:20;;;;;;;7.07;1.67;;;;;;;;;;6236720;28;20046;-78
2023/08/04 15:26:21;;;;;;;8.57;1.42;;;;;;;;;;6239755;28;20061;-78
2023/08/04 15:29:25;;;;;;;5.35;1.58;;;;;;;;;;6239200;28;20108;-76
2023/08/04 15:32:26;;;;;;;7.32;1.60;;;;;;;;;;6240317;28;20050;-77
2023/08/04 15:35:29;;;;;;;7.85;1.75;;;;;;;;;;6237793;28;20245;-78
2023/08/04 15:38:30;;;;;;;;;;;;;;;;;;6239354;28;20715;-77
2023/08/04 15:41:34;;;;;;;5.78;1.60;;;;;;;;;;6241454;28;20121;-77
2023/08/04 15:44:36;;;;;;;9.55;1.77;;;;;;;;;;6240674;28;20058;-77
2023/08/04 15:47:39;;;;;;;5.57;1.33;;;;;;;;;;6238429;28;20285;-76
2023/08/04 15:50:42;;;;;;;8.63;1.25;;;;;;;;;;6239820;28;20061;-77
2023/08/04 15:53:46;;;;;;;3.55;1.25;;;;;;;;;;6241343;28;20053;-77
2023/08/04 15:56:48;;;;;;;6.75;1.40;;;;;;;;;;6243436;28;20084;-77
2023/08/04 15:59:49;;;;;;;6.28;1.42;;;;;;;;;;6239808;28;20337;-73
2023/08/04 16:02:51;;;;;;;5.53;1.60;;;;;;;;;;6241681;28;20089;-75
2023/08/04 16:05:58;;;;;;;5.95;1.85;;;;;;;;;;6242159;28;20046;-76
2023/08/04 16:09:00;;;;;;;8.23;2.15;;;;;;;;;;6242740;28;20046;-76
2023/08/04 16:12:01;;;;;;;8.00;2.20;;;;;;;;;;6244684;28;20381;-76
2023/08/04 16:15:03;;;;;;;5.20;1.88;;;;;;;;;;6241286;28;20207;-79
2023/08/04 16:18:05;;;;;;;6.03;2.30;;;;;;;;;;6243359;28;20066;-79
2023/08/04 16:21:08;;;;;;;7.45;2.50;;;;;;;;;;6241793;28;20265;-78
2023/08/04 16:24:09;;;;;;;9.32;2.30;;;;;;;;;;6244783;28;20356;-77
2023/08/04 16:27:11;;;;;;;8.15;2.40;;;;;;;;;;6240829;28;20907;-76
2023/08/04 16:30:12;;;;;;;9.50;2.72;;;;;;;;;;6241905;28;20330;-76
2023/08/04 16:33:15;;;;;;;8.00;2.10;;;;;;;;;;6243077;28;20215;-78
2023/08/04 16:36:19;;;;;;;8.38;2.60;;;;;;;;;;6246156;28;20058;-76
2023/08/04 16:39:21;;;;;;;11.23;2.30;;;;;;;;;;6242663;28;20069;-78
2023/08/04 16:42:22;;;;;;;6.72;2.08;;;;;;;;;;6242195;28;20061;-76
2023/08/04 16:45:24;;;;;;;10.15;2.17;;;;;;;;;;6244157;28;20349;-76
2023/08/04 16:48:25;;;;;;;6.60;1.80;;;;;;;;;;6244972;28;20057;-74
2023/08/04 16:51:28;;;;;;;4.57;2.08;;;;;;;;;;6240921;28;20072;-76
2023/08/04 16:54:30;;;;;;;6.50;2.13;;;;;;;;;;6244462;28;20051;-77
2023/08/04 16:57:31;;;;;;;8.02;2.28;;;;;;;;;;6240656;28;20057;-76
2023/08/04 17:00:33;;;;;;;13.77;3.22;;;;;;;;;;6242437;28;20261;-76
2023/08/04 17:03:34;;;;;;;6.60;2.20;;;;;;;;;;6238631;28;20049;-77
2023/08/04 17:06:37;;;;;;;5.75;2.45;;;;;;;;;;6240650;28;20052;-77
2023/08/04 17:09:38;;;;;;;4.63;1.88;;;;;;;;;;6240391;28;20250;-77
2023/08/04 17:12:40;;;;;;;3.72;1.92;;;;;;;;;;6238965;28;20056;-76
2023/08/04 17:15:41;;;;;;;11.35;2.35;;;;;;;;;;6243239;28;20095;-76
2023/08/04 17:18:43;;;;;;;11.75;2.47;;;;;;;;;;6243468;28;20042;-77
2023/08/04 17:21:46;;;;;;;7.10;2.28;;;;;;;;;;6241287;28;20054;-77
2023/08/04 17:24:47;;;;;;;7.57;2.20;;;;;;;;;;6243626;28;20053;-76
2023/08/04 17:27:49;;;;;;;10.52;2.55;;;;;;;;;;6239811;28;20360;-77
2023/08/04 17:30:57;;;;;;;5.90;2.35;;;;;;;;;;6242780;28;20085;-77
2023/08/04 17:33:58;;;;;;;9.10;2.60;;;;;;;;;;6241418;28;20052;-76
2023/08/04 17:37:01;;;;;;;5.93;2.13;;;;;;;;;;6240414;28;20353;-77
2023/08/04 17:40:03;;;;;;;6.70;2.50;;;;;;;;;;6242542;28;20060;-76
2023/08/04 17:43:05;;;;;;;6.57;2.22;;;;;;;;;;6241193;28;20057;-76
2023/08/04 17:46:07;;;;;;;7.63;2.58;;;;;;;;;;6242280;28;20329;-77
2023/08/04 17:49:08;;;;;;;9.80;2.88;;;;;;;;;;6242575;28;20049;-74
2023/08/04 17:52:11;;;;;;;7.63;2.40;;;;;;;;;;6238822;28;20050;-75
2023/08/04 17:55:12;;;;;;;5.47;2.47;;;;;;;;;;6239489;28;20042;-74
2023/08/04 17:58:14;;;;;;;8.35;2.40;;;;;;;;;;6240685;28;20053;-73
2023/08/04 18:01:15;;;;;;;7.78;2.60;;;;;;;;;;6241265;28;20053;-77
2023/08/04 18:04:17;;;;;;;6.85;2.60;;;;;;;;;;6241355;28;20124;-75
2023/08/04 18:07:20;;;;;;;8.50;2.80;;;;;;;;;;6241515;28;20049;-75
2023/08/04 18:10:21;;;;;;;9.77;2.80;;;;;;;;;;6240189;28;20065;-76
2023/08/04 18:13:23;;;;;;;9.75;2.67;;;;;;;;;;6239259;28;20049;-76